createdAt,value
2022-08-16T00:00:03.751Z,3.10
2022-08-16T00:02:33.574Z,3.00
2022-08-16T00:05:01.705Z,3.23
2022-08-16T00:07:29.902Z,3.33
2022-08-16T00:09:58.945Z,3.33
2022-08-16T00:12:30.771Z,3.03
2022-08-16T00:15:02.199Z,3.30
2022-08-16T00:17:30.186Z,3.10
2022-08-16T00:20:18.264Z,3.13
2022-08-16T00:22:51.478Z,3.23
2022-08-16T00:26:33.675Z,3.30
2022-08-16T00:28:11.325Z,3.73
2022-08-16T00:30:40.098Z,3.13
2022-08-16T00:33:10.632Z,3.33
2022-08-16T00:35:40.300Z,3.30
2022-08-16T00:38:41.240Z,3.30
2022-08-16T00:40:57.524Z,3.30
2022-08-16T00:43:40.675Z,3.40
2022-08-16T00:46:33.343Z,3.00
2022-08-16T00:49:03.447Z,3.20
2022-08-16T00:51:31.787Z,3.40
2022-08-16T00:53:59.979Z,3.50
2022-08-16T00:56:56.263Z,3.23
2022-08-16T00:59:24.094Z,3.20
2022-08-16T01:01:53.094Z,3.47
2022-08-16T01:04:29.306Z,3.40
2022-08-16T01:07:01.306Z,3.20
2022-08-16T01:09:33.298Z,3.47
2022-08-16T01:12:02.903Z,3.80
2022-08-16T01:14:38.766Z,3.40
2022-08-16T01:17:08.260Z,3.50
2022-08-16T01:19:41.096Z,3.50
2022-08-16T01:22:50.218Z,3.47
2022-08-16T01:25:10.409Z,3.70
2022-08-16T01:27:43.960Z,3.70
2022-08-16T01:30:20.342Z,3.77
2022-08-16T01:33:02.173Z,4.07
2022-08-16T01:35:37.246Z,3.67
2022-08-16T01:38:20.409Z,4.10
2022-08-16T01:40:55.487Z,3.60
2022-08-16T01:43:25.916Z,3.87
2022-08-16T01:45:57.758Z,3.80
2022-08-16T01:48:29.782Z,3.90
2022-08-16T01:51:09.608Z,3.90
2022-08-16T01:53:45.177Z,3.77
2022-08-16T01:56:31.913Z,3.70
2022-08-16T01:59:02.566Z,3.90
2022-08-16T02:01:32.810Z,3.83
2022-08-16T02:04:10.838Z,3.93
2022-08-16T02:06:46.648Z,3.50
2022-08-16T02:09:19.236Z,3.77
2022-08-16T02:11:53.824Z,3.90
2022-08-16T02:14:26.326Z,3.93
2022-08-16T02:16:56.231Z,3.80
2022-08-16T02:19:59.026Z,3.70
2022-08-16T02:22:34.072Z,3.57
2022-08-16T02:25:05.084Z,3.77
2022-08-16T02:27:35.180Z,3.80
2022-08-16T02:30:08.394Z,3.50
2022-08-16T02:32:50.259Z,3.80
2022-08-16T02:35:23.068Z,3.60
2022-08-16T02:37:53.428Z,4.20
2022-08-16T02:40:26.611Z,3.93
2022-08-16T02:42:57.075Z,4.40
2022-08-16T02:45:28.147Z,3.70
2022-08-16T02:48:01.713Z,3.73
2022-08-16T02:50:53.659Z,4.10
2022-08-16T02:53:23.835Z,3.50
2022-08-16T02:55:53.277Z,4.33
2022-08-16T02:58:24.856Z,3.90
2022-08-16T03:00:55.914Z,3.77
2022-08-16T03:03:26.018Z,3.73
2022-08-16T03:05:54.639Z,3.60
2022-08-16T03:08:51.883Z,3.57
2022-08-16T03:11:16.472Z,3.87
2022-08-16T03:13:48.719Z,4.07
2022-08-16T03:16:36.488Z,3.70
2022-08-16T03:19:07.566Z,4.00
2022-08-16T03:21:38.168Z,3.53
2022-08-16T03:24:28.778Z,3.70
2022-08-16T03:26:59.009Z,3.80
2022-08-16T03:29:31.441Z,3.60
2022-08-16T03:32:02.201Z,3.53
2022-08-16T03:34:33.218Z,3.70
2022-08-16T03:37:02.029Z,3.93
2022-08-16T03:39:30.637Z,3.90
2022-08-16T03:42:00.451Z,4.10
2022-08-16T03:44:43.242Z,3.30
2022-08-16T03:47:13.476Z,4.17
2022-08-16T03:49:51.657Z,3.90
2022-08-16T03:52:23.622Z,3.70
2022-08-16T03:54:57.907Z,4.00
2022-08-16T03:57:31.357Z,3.67
2022-08-16T04:00:01.623Z,4.10
2022-08-16T04:02:42.341Z,4.20
2022-08-16T04:05:16.649Z,3.70
2022-08-16T04:07:46.521Z,3.60
2022-08-16T04:10:35.728Z,3.80
2022-08-16T04:13:05.576Z,3.60
2022-08-16T04:15:50.159Z,3.80
2022-08-16T04:18:24.562Z,4.30
2022-08-16T04:20:56.446Z,4.20
2022-08-16T04:23:27.875Z,3.87
2022-08-16T04:25:57.585Z,3.77
2022-08-16T04:28:56.666Z,4.00
2022-08-16T04:31:20.221Z,3.87
2022-08-16T04:33:51.229Z,4.13
2022-08-16T04:36:22.091Z,4.30
2022-08-16T04:38:52.499Z,4.10
2022-08-16T04:41:32.852Z,10.13
2022-08-16T04:44:52.455Z,4.03
2022-08-16T04:47:02.628Z,4.50
2022-08-16T04:49:38.666Z,3.60
2022-08-16T04:52:33.847Z,3.80
2022-08-16T04:55:03.304Z,4.43
2022-08-16T04:57:31.643Z,4.37
2022-08-16T05:00:31.811Z,4.00
2022-08-16T05:02:55.978Z,4.27
2022-08-16T05:05:24.948Z,4.07
2022-08-16T05:08:00.219Z,4.17
2022-08-16T05:10:32.637Z,4.23
2022-08-16T05:13:02.772Z,4.30
2022-08-16T05:15:31.106Z,4.53
2022-08-16T05:18:03.879Z,4.20
2022-08-16T05:21:01.427Z,4.10
2022-08-16T05:23:31.745Z,3.73
2022-08-16T05:26:02.353Z,4.13
2022-08-16T05:28:31.104Z,3.83
2022-08-16T05:31:07.767Z,4.17
2022-08-16T05:33:38.050Z,4.00
2022-08-16T05:36:14.403Z,4.13
2022-08-16T05:38:50.560Z,4.33
2022-08-16T05:41:20.445Z,4.00
2022-08-16T05:43:51.147Z,3.70
2022-08-16T05:46:36.989Z,4.00
2022-08-16T05:49:22.365Z,4.10
2022-08-16T05:51:55.481Z,4.07
2022-08-16T05:54:25.818Z,4.30
2022-08-16T05:57:00.024Z,3.83
2022-08-16T05:59:29.374Z,4.40
2022-08-16T06:01:58.856Z,4.07
2022-08-16T06:04:37.701Z,3.97
2022-08-16T06:07:24.587Z,3.67
2022-08-16T06:10:09.832Z,4.20
2022-08-16T06:12:39.536Z,3.93
2022-08-16T06:15:11.531Z,3.87
2022-08-16T06:17:44.592Z,3.83
2022-08-16T06:20:35.187Z,3.90
2022-08-16T06:23:17.268Z,4.17
2022-08-16T06:26:14.905Z,3.97
2022-08-16T06:28:47.465Z,4.03
2022-08-16T06:31:24.642Z,3.93
2022-08-16T06:33:54.213Z,4.27
2022-08-16T06:36:26.641Z,3.97
2022-08-16T06:39:15.183Z,3.83
2022-08-16T06:41:53.135Z,3.97
2022-08-16T06:44:39.762Z,4.00
2022-08-16T06:47:24.358Z,3.87
2022-08-16T06:50:21.975Z,4.20
2022-08-16T06:52:59.641Z,4.53
2022-08-16T06:55:34.444Z,5.07
2022-08-16T06:58:08.350Z,4.50
2022-08-16T07:00:38.644Z,4.60
2022-08-16T07:03:27.629Z,4.00
2022-08-16T07:06:02.123Z,4.30
2022-08-16T07:08:37.744Z,4.33
2022-08-16T07:11:06.387Z,4.30
2022-08-16T07:14:00.182Z,4.30
2022-08-16T07:16:29.932Z,4.10
2022-08-16T07:19:01.651Z,3.80
2022-08-16T07:21:45.810Z,4.00
2022-08-16T07:24:30.508Z,3.93
2022-08-16T07:27:08.637Z,3.87
2022-08-16T07:29:41.970Z,3.80
2022-08-16T07:32:11.664Z,4.37
2022-08-16T07:34:48.526Z,4.17
2022-08-16T07:37:18.920Z,4.17
2022-08-16T07:40:14.380Z,3.70
2022-08-16T07:42:46.009Z,4.20
2022-08-16T07:45:16.895Z,4.10
2022-08-16T07:47:51.274Z,4.20
2022-08-16T07:50:56.423Z,4.53
2022-08-16T07:53:09.371Z,4.07
2022-08-16T07:55:47.626Z,3.83
2022-08-16T07:58:33.947Z,4.30
2022-08-16T08:01:10.947Z,4.17
2022-08-16T08:03:52.291Z,4.33
2022-08-16T08:06:28.556Z,4.70
2022-08-16T08:09:00.641Z,4.70
2022-08-16T08:11:31.911Z,4.33
2022-08-16T08:14:06.608Z,4.43
2022-08-16T08:16:45.390Z,4.07
2022-08-16T08:19:22.574Z,3.93
2022-08-16T08:21:59.559Z,4.47
2022-08-16T08:24:44.086Z,3.80
2022-08-16T08:27:23.109Z,4.00
2022-08-16T08:30:49.945Z,4.20
2022-08-16T08:32:57.028Z,4.27
2022-08-16T08:35:28.818Z,4.53
2022-08-16T08:37:58.838Z,4.20
2022-08-16T08:40:30.562Z,4.30
2022-08-16T08:43:12.014Z,4.40
2022-08-16T08:45:46.973Z,4.47
2022-08-16T08:48:32.792Z,4.30
2022-08-16T08:51:11.218Z,4.17
2022-08-16T08:53:57.597Z,4.40
2022-08-16T08:56:29.977Z,4.07
2022-08-16T08:59:16.417Z,4.17
2022-08-16T09:01:56.936Z,4.10
2022-08-16T09:04:40.315Z,4.30
2022-08-16T09:07:08.898Z,4.67
2022-08-16T09:09:41.219Z,4.17
2022-08-16T09:12:31.157Z,4.37
2022-08-16T09:15:10.116Z,4.37
2022-08-16T09:17:51.779Z,4.00
2022-08-16T09:20:26.258Z,4.20
2022-08-16T09:22:55.366Z,4.33
2022-08-16T09:25:43.272Z,4.53
2022-08-16T09:29:13.913Z,4.13
2022-08-16T09:31:20.348Z,4.00
2022-08-16T09:33:52.117Z,4.40
2022-08-16T09:36:32.039Z,4.20
2022-08-16T09:39:03.286Z,4.20
2022-08-16T09:41:32.121Z,4.30
2022-08-16T09:45:09.546Z,4.13
2022-08-16T09:46:57.589Z,4.53
2022-08-16T09:49:37.221Z,4.73
2022-08-16T09:52:06.169Z,4.47
2022-08-16T09:54:34.299Z,3.97
2022-08-16T09:57:02.471Z,4.47
2022-08-16T09:59:31.360Z,3.77
2022-08-16T10:02:26.426Z,4.47
2022-08-16T10:04:57.355Z,4.10
2022-08-16T10:07:26.909Z,4.30
2022-08-16T10:10:30.375Z,4.57
2022-08-16T10:13:14.547Z,4.53
2022-08-16T10:15:55.727Z,4.17
2022-08-16T10:18:56.445Z,4.70
2022-08-16T10:21:16.758Z,4.60
2022-08-16T10:23:45.262Z,4.63
2022-08-16T10:27:18.016Z,4.33
2022-08-16T10:29:04.887Z,4.63
2022-08-16T10:31:43.715Z,4.30
2022-08-16T10:34:31.434Z,4.00
2022-08-16T10:37:00.720Z,4.17
2022-08-16T10:39:40.691Z,3.67
2022-08-16T10:42:10.474Z,4.00
2022-08-16T10:44:42.466Z,4.00
2022-08-16T10:47:11.507Z,4.07
2022-08-16T10:49:41.235Z,4.22
2022-08-16T10:52:18.009Z,4.10
2022-08-16T10:57:35.585Z,4.00
2022-08-16T11:00:21.056Z,3.80
2022-08-16T11:02:59.579Z,3.78
2022-08-16T11:08:31.188Z,3.70
2022-08-16T11:11:11.824Z,3.60
2022-08-16T11:14:11.381Z,3.45
2022-08-16T11:19:24.318Z,3.45
2022-08-16T11:24:44.907Z,3.53
2022-08-16T11:27:20.108Z,3.78
2022-08-16T11:29:52.174Z,4.20
2022-08-16T11:32:22.637Z,3.55
2022-08-16T11:35:15.846Z,3.90
2022-08-16T11:38:46.600Z,3.40
2022-08-16T11:40:44.466Z,3.65
2022-08-16T11:43:12.915Z,4.43
2022-08-16T11:45:53.809Z,3.33
2022-08-16T11:48:23.350Z,3.65
2022-08-16T11:50:51.324Z,3.25
2022-08-16T11:53:22.006Z,3.50
2022-08-16T11:55:54.852Z,3.45
2022-08-16T11:58:24.439Z,3.20
2022-08-16T12:00:53.823Z,4.00
2022-08-16T12:03:34.614Z,3.60
2022-08-16T12:06:10.842Z,3.25
2022-08-16T12:08:57.409Z,3.22
2022-08-16T12:11:31.596Z,3.22
2022-08-16T12:14:00.718Z,3.58
2022-08-16T12:16:30.970Z,3.28
2022-08-16T12:19:02.958Z,3.63
2022-08-16T12:21:58.932Z,3.67
2022-08-16T12:24:23.895Z,3.50
2022-08-16T12:26:52.069Z,3.30
2022-08-16T12:29:20.476Z,3.45
2022-08-16T12:31:59.427Z,3.03
2022-08-16T12:34:37.479Z,3.25
2022-08-16T12:37:10.383Z,3.47
2022-08-16T12:39:47.151Z,3.53
2022-08-16T12:42:20.634Z,3.05
2022-08-16T12:44:49.462Z,3.25
2022-08-16T12:47:36.655Z,3.20
2022-08-16T12:50:07.457Z,3.30
2022-08-16T12:52:44.400Z,3.30
2022-08-16T12:55:24.073Z,2.85
2022-08-16T12:58:14.149Z,3.33
2022-08-16T13:00:58.373Z,3.17
2022-08-16T13:03:28.332Z,3.03
2022-08-16T13:06:00.242Z,2.90
2022-08-16T13:08:30.914Z,2.92
2022-08-16T13:11:04.259Z,3.17
2022-08-16T13:13:34.652Z,2.90
2022-08-16T13:16:15.535Z,3.38
2022-08-16T13:18:52.422Z,3.05
2022-08-16T13:21:23.761Z,3.40
2022-08-16T13:23:55.475Z,3.00
2022-08-16T13:26:26.180Z,3.20
2022-08-16T13:28:55.093Z,3.10
2022-08-16T13:31:23.941Z,3.03
2022-08-16T13:33:54.472Z,2.85
2022-08-16T13:36:48.122Z,3.20
2022-08-16T13:39:14.614Z,2.70
2022-08-16T13:41:43.984Z,2.90
2022-08-16T13:44:21.653Z,2.72
2022-08-16T13:46:49.870Z,2.85
2022-08-16T13:49:18.893Z,2.85
2022-08-16T13:51:49.081Z,2.50
2022-08-16T13:56:46.876Z,2.80
2022-08-16T13:59:19.893Z,2.90
2022-08-16T14:01:55.495Z,2.92
2022-08-16T14:04:27.325Z,3.22
2022-08-16T14:06:57.206Z,3.20
2022-08-16T14:09:27.323Z,2.95
2022-08-16T14:11:58.859Z,3.10
2022-08-16T14:14:30.151Z,3.20
2022-08-16T14:16:59.654Z,2.83
2022-08-16T14:19:29.533Z,2.97
2022-08-16T14:22:14.176Z,3.00
2022-08-16T14:24:47.736Z,2.90
2022-08-16T14:27:18.941Z,3.17
2022-08-16T14:29:49.374Z,2.90
2022-08-16T14:32:32.543Z,3.53
2022-08-16T14:35:04.751Z,3.47
2022-08-16T14:37:36.039Z,3.53
2022-08-16T14:40:05.904Z,4.10
2022-08-16T14:42:36.679Z,3.17
2022-08-16T14:45:14.193Z,3.10
2022-08-16T14:47:42.505Z,3.05
2022-08-16T14:50:14.426Z,2.75
2022-08-16T14:52:55.150Z,2.60
2022-08-16T14:55:25.915Z,3.10
2022-08-16T14:57:56.009Z,3.00
2022-08-16T15:00:32.708Z,2.97
2022-08-16T15:03:09.723Z,2.70
2022-08-16T15:05:40.506Z,2.75
2022-08-16T15:08:09.931Z,2.60
2022-08-16T15:10:42.761Z,2.75
2022-08-16T15:13:15.534Z,2.70
2022-08-16T15:15:45.218Z,2.70
2022-08-16T15:18:27.898Z,2.40
2022-08-16T15:20:56.394Z,2.30
2022-08-16T15:23:25.720Z,2.60
2022-08-16T15:26:03.650Z,2.10
2022-08-16T15:28:36.619Z,2.20
2022-08-16T15:31:08.066Z,2.50
2022-08-16T15:33:43.433Z,2.10
2022-08-16T15:36:17.473Z,2.75
2022-08-16T15:39:02.271Z,2.53
2022-08-16T15:42:02.968Z,2.58
2022-08-16T15:44:44.137Z,2.60
2022-08-16T15:47:19.498Z,2.53
2022-08-16T15:49:53.082Z,2.70
2022-08-16T15:52:29.739Z,2.67
2022-08-16T15:55:00.988Z,2.30
2022-08-16T15:57:41.847Z,2.28
2022-08-16T16:00:14.639Z,2.05
2022-08-16T16:02:43.229Z,2.40
2022-08-16T16:05:11.474Z,2.17
2022-08-16T16:07:55.680Z,2.53
2022-08-16T16:10:28.336Z,2.40
2022-08-16T16:13:00.240Z,2.40
2022-08-16T16:15:32.864Z,2.10
2022-08-16T16:18:09.074Z,2.20
2022-08-16T16:20:42.274Z,2.38
2022-08-16T16:23:11.660Z,2.58
2022-08-16T16:25:43.622Z,2.45
2022-08-16T16:29:06.058Z,2.50
2022-08-16T16:31:04.614Z,2.80
2022-08-16T16:33:36.854Z,2.08
2022-08-16T16:36:06.981Z,2.60
2022-08-16T16:38:35.498Z,2.50
2022-08-16T16:41:09.288Z,2.45
2022-08-16T16:43:40.781Z,2.60
2022-08-16T16:46:41.354Z,2.70
2022-08-16T16:49:03.115Z,2.70
2022-08-16T16:51:40.712Z,2.60
2022-08-16T16:54:12.932Z,2.65
2022-08-16T16:56:49.785Z,2.85
2022-08-16T16:59:18.200Z,2.47
2022-08-16T17:01:59.080Z,2.72
2022-08-16T17:04:38.906Z,2.60
2022-08-16T17:07:10.590Z,2.70
2022-08-16T17:09:40.523Z,2.40
2022-08-16T17:12:09.995Z,2.58
2022-08-16T17:14:43.163Z,2.65
2022-08-16T17:17:13.168Z,3.05
2022-08-16T17:19:41.887Z,2.92
2022-08-16T17:22:13.935Z,2.60
2022-08-16T17:24:44.762Z,2.88
2022-08-16T17:27:18.019Z,2.85
2022-08-16T17:29:47.540Z,3.00
2022-08-16T17:32:34.384Z,3.08
2022-08-16T17:35:18.105Z,2.80
2022-08-16T17:37:51.810Z,2.88
2022-08-16T17:40:36.083Z,2.70
2022-08-16T17:43:11.430Z,3.10
2022-08-16T17:45:40.927Z,2.83
2022-08-16T17:48:10.761Z,2.80
2022-08-16T17:50:39.785Z,3.13
2022-08-16T17:53:08.792Z,3.80
2022-08-16T17:55:38.632Z,3.80
2022-08-16T17:58:22.990Z,3.75
2022-08-16T18:00:54.160Z,3.63
2022-08-16T18:04:02.882Z,3.80
2022-08-16T18:06:17.684Z,3.50
2022-08-16T18:08:48.631Z,3.90
2022-08-16T18:11:25.679Z,3.53
2022-08-16T18:13:55.370Z,3.53
2022-08-16T18:16:24.100Z,3.35
2022-08-16T18:18:53.584Z,3.58
2022-08-16T18:21:40.049Z,3.60
2022-08-16T18:24:08.836Z,3.88
2022-08-16T18:26:37.294Z,4.20
2022-08-16T18:29:06.323Z,3.58
2022-08-16T18:31:34.994Z,3.78
2022-08-16T18:34:05.057Z,4.10
2022-08-16T18:36:33.299Z,4.20
2022-08-16T18:39:01.856Z,4.10
2022-08-16T18:41:30.461Z,4.32
2022-08-16T18:44:26.805Z,4.20
2022-08-16T18:46:51.043Z,4.72
2022-08-16T18:49:21.006Z,4.05
2022-08-16T18:51:50.607Z,4.30
2022-08-16T18:54:19.446Z,3.92
2022-08-16T18:56:54.224Z,4.20
2022-08-16T18:59:26.381Z,4.22
2022-08-16T19:01:59.658Z,4.20
2022-08-16T19:04:47.805Z,4.32
2022-08-16T19:07:18.331Z,3.83
2022-08-16T19:09:46.774Z,4.00
2022-08-16T19:12:15.692Z,4.13
2022-08-16T19:14:45.304Z,3.77
2022-08-16T19:17:13.354Z,3.92
2022-08-16T19:19:42.684Z,3.63
2022-08-16T19:22:10.822Z,4.20
2022-08-16T19:24:39.136Z,3.93
2022-08-16T19:27:10.083Z,4.00
2022-08-16T19:29:38.187Z,4.37
2022-08-16T19:32:15.875Z,4.10
2022-08-16T19:34:45.360Z,3.93
2022-08-16T19:37:13.382Z,4.30
2022-08-16T19:39:41.445Z,4.17
2022-08-16T19:42:15.172Z,4.00
2022-08-16T19:44:44.720Z,4.20
2022-08-16T19:47:13.581Z,4.10
2022-08-16T19:49:41.954Z,4.10
2022-08-16T19:52:13.695Z,4.30
2022-08-16T19:54:42.081Z,4.03
2022-08-16T19:57:10.529Z,4.20
2022-08-16T19:59:40.823Z,4.00
2022-08-16T20:02:35.670Z,3.87
2022-08-16T20:05:05.461Z,4.20
2022-08-16T20:07:34.892Z,4.40
2022-08-16T20:10:03.151Z,4.40
2022-08-16T20:12:32.323Z,3.93
2022-08-16T20:15:00.310Z,4.00
2022-08-16T20:17:28.245Z,4.40
2022-08-16T20:19:56.395Z,4.23
2022-08-16T20:22:51.662Z,4.57
2022-08-16T20:25:28.006Z,4.23
2022-08-16T20:27:57.432Z,4.37
2022-08-16T20:30:26.445Z,4.40
2022-08-16T20:32:55.254Z,4.60
2022-08-16T20:35:25.106Z,4.03
2022-08-16T20:37:53.293Z,4.77
2022-08-16T20:40:34.773Z,4.10
2022-08-16T20:43:07.344Z,4.80
2022-08-16T20:45:36.156Z,4.30
2022-08-16T20:48:05.868Z,4.40
2022-08-16T20:50:34.261Z,4.40
2022-08-16T20:53:02.875Z,3.90
2022-08-16T20:55:34.654Z,4.57
2022-08-16T20:58:02.678Z,4.00
2022-08-16T21:00:32.192Z,4.50
2022-08-16T21:03:00.212Z,4.60
2022-08-16T21:05:31.112Z,4.17
2022-08-16T21:08:00.186Z,4.50
2022-08-16T21:10:28.713Z,4.40
2022-08-16T21:13:02.597Z,4.70
2022-08-16T21:15:33.610Z,4.20
2022-08-16T21:18:02.399Z,4.90
2022-08-16T21:20:30.418Z,4.17
2022-08-16T21:23:01.854Z,4.77
2022-08-16T21:25:31.090Z,4.07
2022-08-16T21:28:41.182Z,4.37
2022-08-16T21:30:49.363Z,4.73
2022-08-16T21:33:21.595Z,4.27
2022-08-16T21:35:52.283Z,4.73
2022-08-16T21:38:29.320Z,4.27
2022-08-16T21:40:58.669Z,4.70
2022-08-16T21:43:31.743Z,4.43
2022-08-16T21:46:00.582Z,4.50
2022-08-16T21:48:35.106Z,4.87
2022-08-16T21:51:05.361Z,5.00
2022-08-16T21:53:34.648Z,4.70
2022-08-16T21:56:03.112Z,4.60
2022-08-16T21:58:32.635Z,4.93
2022-08-16T22:01:01.035Z,5.07
2022-08-16T22:03:29.986Z,4.43
2022-08-16T22:06:05.859Z,4.57
2022-08-16T22:08:49.612Z,4.40
2022-08-16T22:11:19.741Z,4.60
2022-08-16T22:13:57.277Z,4.73
2022-08-16T22:16:29.559Z,4.67
2022-08-16T22:18:57.682Z,4.10
2022-08-16T22:21:26.055Z,4.47
2022-08-16T22:23:57.403Z,4.50
2022-08-16T22:26:30.872Z,4.70
2022-08-16T22:29:01.922Z,4.77
2022-08-16T22:31:30.198Z,4.73
2022-08-16T22:33:58.251Z,4.53
2022-08-16T22:36:28.255Z,4.60
2022-08-16T22:38:58.204Z,4.97
2022-08-16T22:41:27.397Z,4.90
2022-08-16T22:43:55.971Z,4.83
2022-08-16T22:46:25.648Z,4.67
2022-08-16T22:48:53.632Z,4.77
2022-08-16T22:51:23.009Z,4.87
2022-08-16T22:53:51.443Z,4.73
2022-08-16T22:56:21.168Z,4.60
2022-08-16T22:58:50.004Z,5.20
2022-08-16T23:01:20.088Z,4.63
2022-08-16T23:03:49.666Z,4.50
2022-08-16T23:06:18.773Z,4.60
2022-08-16T23:08:47.093Z,4.90
2022-08-16T23:11:20.270Z,4.70
2022-08-16T23:13:53.076Z,4.93
2022-08-16T23:16:25.152Z,4.40
2022-08-16T23:19:05.602Z,4.93
2022-08-16T23:21:34.050Z,4.30
2022-08-16T23:24:02.624Z,5.13
2022-08-16T23:26:46.369Z,4.60
2022-08-16T23:29:24.691Z,4.80
2022-08-16T23:31:56.783Z,4.33
2022-08-16T23:34:27.742Z,4.80
2022-08-16T23:36:55.933Z,4.90
2022-08-16T23:39:24.686Z,5.17
2022-08-16T23:41:52.874Z,4.57
2022-08-16T23:44:56.922Z,4.60
2022-08-16T23:47:09.566Z,4.53
2022-08-16T23:50:01.897Z,4.40
2022-08-16T23:52:42.292Z,4.53
2022-08-16T23:55:16.355Z,4.80
2022-08-16T23:57:45.989Z,5.07
